sensor_id;sensor_type;location;lat;lon;timestamp;pressure;altitude;pressure_sealevel;temperature;humidity
113;BME280;45999;48.808;9.182;2023-04-01T00:00:32;96753.69;;;8.53;100.00
113;BME280;45999;48.808;9.182;2023-04-01T00:02:58;96757.28;;;8.47;100.00
113;BME280;45999;48.808;9.182;2023-04-01T00:05:25;96764.53;;;8.40;100.00
113;BME280;45999;48.808;9.182;2023-04-01T00:07:51;96760.38;;;8.44;100.00
113;BME280;45999;48.808;9.182;2023-04-01T00:10:18;96760.09;;;8.57;100.00
113;BME280;45999;48.808;9.182;2023-04-01T00:12:44;96754.00;;;8.56;100.00
113;BME280;45999;48.808;9.182;2023-04-01T00:15:11;96766.69;;;8.54;100.00
113;BME280;45999;48.808;9.182;2023-04-01T00:17:38;96770.31;;;8.65;100.00
113;BME280;45999;48.808;9.182;2023-04-01T00:20:06;96769.38;;;8.71;100.00
113;BME280;45999;48.808;9.182;2023-04-01T00:22:33;96764.53;;;8.68;100.00
113;BME280;45999;48.808;9.182;2023-04-01T00:24:59;96760.63;;;8.70;100.00
113;BME280;45999;48.808;9.182;2023-04-01T00:27:26;96754.53;;;8.70;100.00
113;BME280;45999;48.808;9.182;2023-04-01T00:29:52;96760.28;;;8.67;100.00
113;BME280;45999;48.808;9.182;2023-04-01T00:32:19;96762.16;;;8.66;100.00
113;BME280;45999;48.808;9.182;2023-04-01T00:34:45;96765.25;;;8.63;100.00
113;BME280;45999;48.808;9.182;2023-04-01T00:37:11;96755.84;;;8.56;100.00
113;BME280;45999;48.808;9.182;2023-04-01T00:39:38;96754.50;;;8.53;100.00
113;BME280;45999;48.808;9.182;2023-04-01T00:42:05;96771.03;;;8.60;100.00
113;BME280;45999;48.808;9.182;2023-04-01T00:44:33;96775.03;;;8.63;100.00
113;BME280;45999;48.808;9.182;2023-04-01T00:47:00;96774.56;;;8.66;100.00
113;BME280;45999;48.808;9.182;2023-04-01T00:49:30;96763.28;;;8.70;100.00
113;BME280;45999;48.808;9.182;2023-04-01T00:51:59;96780.06;;;8.76;100.00
113;BME280;45999;48.808;9.182;2023-04-01T00:54:28;96768.66;;;8.75;100.00
113;BME280;45999;48.808;9.182;2023-04-01T00:57:05;96768.75;;;8.80;100.00
113;BME280;45999;48.808;9.182;2023-04-01T00:59:35;96775.34;;;8.78;100.00
113;BME280;45999;48.808;9.182;2023-04-01T01:02:05;96776.69;;;8.80;100.00
113;BME280;45999;48.808;9.182;2023-04-01T01:04:34;96770.97;;;8.72;100.00
113;BME280;45999;48.808;9.182;2023-04-01T01:07:12;96768.00;;;8.68;100.00
113;BME280;45999;48.808;9.182;2023-04-01T01:09:55;96768.59;;;8.70;100.00
113;BME280;45999;48.808;9.182;2023-04-01T01:24:04;96759.28;;;8.56;100.00
113;BME280;45999;48.808;9.182;2023-04-01T01:26:57;96764.94;;;8.60;100.00
113;BME280;45999;48.808;9.182;2023-04-01T01:37:20;96764.13;;;8.59;100.00
113;BME280;45999;48.808;9.182;2023-04-01T01:39:55;96762.84;;;8.62;100.00
113;BME280;45999;48.808;9.182;2023-04-01T01:42:25;96760.09;;;8.57;100.00
113;BME280;45999;48.808;9.182;2023-04-01T01:44:53;96761.16;;;8.56;100.00
113;BME280;45999;48.808;9.182;2023-04-01T01:47:23;96758.41;;;8.51;100.00
113;BME280;45999;48.808;9.182;2023-04-01T01:49:51;96766.50;;;8.44;100.00
113;BME280;45999;48.808;9.182;2023-04-01T01:52:19;96759.59;;;8.43;100.00
113;BME280;45999;48.808;9.182;2023-04-01T01:54:53;96762.47;;;8.42;100.00
113;BME280;45999;48.808;9.182;2023-04-01T01:57:28;96765.81;;;8.37;100.00
113;BME280;45999;48.808;9.182;2023-04-01T02:00:00;96756.75;;;8.33;100.00
113;BME280;45999;48.808;9.182;2023-04-01T02:02:28;96759.78;;;8.25;100.00
113;BME280;45999;48.808;9.182;2023-04-01T02:04:56;96751.84;;;8.25;100.00
113;BME280;45999;48.808;9.182;2023-04-01T02:07:27;96749.19;;;8.25;100.00
113;BME280;45999;48.808;9.182;2023-04-01T02:09:55;96747.34;;;8.26;100.00
113;BME280;45999;48.808;9.182;2023-04-01T02:12:22;96751.03;;;8.25;100.00
113;BME280;45999;48.808;9.182;2023-04-01T02:14:57;96753.31;;;8.33;100.00
113;BME280;45999;48.808;9.182;2023-04-01T02:17:29;96759.28;;;8.28;100.00
113;BME280;45999;48.808;9.182;2023-04-01T02:19:59;96759.06;;;8.30;100.00
113;BME280;45999;48.808;9.182;2023-04-01T02:22:28;96769.19;;;8.33;100.00
113;BME280;45999;48.808;9.182;2023-04-01T02:25:03;96759.75;;;8.37;100.00
113;BME280;45999;48.808;9.182;2023-04-01T02:27:31;96765.78;;;8.21;100.00
113;BME280;45999;48.808;9.182;2023-04-01T02:29:58;96759.19;;;8.23;100.00
113;BME280;45999;48.808;9.182;2023-04-01T02:32:25;96765.78;;;8.21;100.00
113;BME280;45999;48.808;9.182;2023-04-01T02:34:54;96755.75;;;8.23;100.00
113;BME280;45999;48.808;9.182;2023-04-01T02:37:20;96758.16;;;8.24;100.00
113;BME280;45999;48.808;9.182;2023-04-01T02:39:47;96756.69;;;8.05;100.00
113;BME280;45999;48.808;9.182;2023-04-01T02:42:13;96744.72;;;8.03;100.00
113;BME280;45999;48.808;9.182;2023-04-01T02:44:40;96757.06;;;7.97;100.00
113;BME280;45999;48.808;9.182;2023-04-01T02:47:07;96753.13;;;8.00;100.00
113;BME280;45999;48.808;9.182;2023-04-01T02:49:33;96755.91;;;8.05;100.00
113;BME280;45999;48.808;9.182;2023-04-01T02:51:59;96754.38;;;8.09;100.00
113;BME280;45999;48.808;9.182;2023-04-01T02:54:26;96755.41;;;8.08;100.00
113;BME280;45999;48.808;9.182;2023-04-01T02:56:52;96759.53;;;8.15;100.00
113;BME280;45999;48.808;9.182;2023-04-01T02:59:18;96759.06;;;8.18;100.00
113;BME280;45999;48.808;9.182;2023-04-01T03:01:45;96753.34;;;8.10;100.00
113;BME280;45999;48.808;9.182;2023-04-01T03:04:11;96758.88;;;8.08;100.00
113;BME280;45999;48.808;9.182;2023-04-01T03:06:37;96759.22;;;8.12;100.00
113;BME280;45999;48.808;9.182;2023-04-01T03:09:04;96758.66;;;8.10;100.00
113;BME280;45999;48.808;9.182;2023-04-01T03:11:30;96768.19;;;8.11;100.00
113;BME280;45999;48.808;9.182;2023-04-01T03:13:57;96760.34;;;8.16;100.00
113;BME280;45999;48.808;9.182;2023-04-01T03:16:23;96755.59;;;8.18;100.00
113;BME280;45999;48.808;9.182;2023-04-01T03:18:49;96761.94;;;8.17;100.00
113;BME280;45999;48.808;9.182;2023-04-01T03:21:22;96761.03;;;8.11;100.00
113;BME280;45999;48.808;9.182;2023-04-01T03:23:49;96756.22;;;8.08;100.00
113;BME280;45999;48.808;9.182;2023-04-01T03:26:15;96756.69;;;8.05;100.00
113;BME280;45999;48.808;9.182;2023-04-01T03:28:42;96760.06;;;8.01;100.00
113;BME280;45999;48.808;9.182;2023-04-01T03:31:09;96763.16;;;7.98;100.00
113;BME280;45999;48.808;9.182;2023-04-01T03:33:35;96764.56;;;7.89;100.00
113;BME280;45999;48.808;9.182;2023-04-01T03:36:02;96766.75;;;7.92;100.00
113;BME280;45999;48.808;9.182;2023-04-01T03:38:32;96763.16;;;7.98;100.00
113;BME280;45999;48.808;9.182;2023-04-01T03:40:59;96768.22;;;7.99;100.00
113;BME280;45999;48.808;9.182;2023-04-01T03:43:25;96760.97;;;7.95;100.00
113;BME280;45999;48.808;9.182;2023-04-01T03:45:52;96760.84;;;8.01;100.00
113;BME280;45999;48.808;9.182;2023-04-01T03:48:19;96759.69;;;7.97;100.00
113;BME280;45999;48.808;9.182;2023-04-01T03:50:46;96755.44;;;7.96;100.00
113;BME280;45999;48.808;9.182;2023-04-01T03:53:13;96758.81;;;7.92;100.00
113;BME280;45999;48.808;9.182;2023-04-01T03:55:40;96751.44;;;7.94;100.00
113;BME280;45999;48.808;9.182;2023-04-01T03:58:07;96745.78;;;8.02;100.00
113;BME280;45999;48.808;9.182;2023-04-01T04:00:34;96748.22;;;7.92;100.00
113;BME280;45999;48.808;9.182;2023-04-01T04:03:01;96743.59;;;7.99;100.00
113;BME280;45999;48.808;9.182;2023-04-01T04:05:27;96751.06;;;8.02;100.00
113;BME280;45999;48.808;9.182;2023-04-01T04:07:54;96743.50;;;7.94;100.00
113;BME280;45999;48.808;9.182;2023-04-01T04:10:21;96742.53;;;8.00;100.00
113;BME280;45999;48.808;9.182;2023-04-01T04:12:49;96742.09;;;8.03;100.00
113;BME280;45999;48.808;9.182;2023-04-01T04:15:15;96746.09;;;8.05;100.00
113;BME280;45999;48.808;9.182;2023-04-01T04:17:42;96742.19;;;8.08;100.00
113;BME280;45999;48.808;9.182;2023-04-01T04:20:08;96748.72;;;8.17;100.00
113;BME280;45999;48.808;9.182;2023-04-01T04:22:35;96742.28;;;8.13;100.00
113;BME280;45999;48.808;9.182;2023-04-01T04:25:01;96734.09;;;8.14;100.00
113;BME280;45999;48.808;9.182;2023-04-01T04:27:28;96741.50;;;8.12;100.00
113;BME280;45999;48.808;9.182;2023-04-01T04:29:55;96740.81;;;8.05;100.00
113;BME280;45999;48.808;9.182;2023-04-01T04:32:21;96732.91;;;7.94;100.00
113;BME280;45999;48.808;9.182;2023-04-01T04:34:47;96741.88;;;7.93;100.00
113;BME280;45999;48.808;9.182;2023-04-01T04:37:14;96723.06;;;7.78;100.00
113;BME280;45999;48.808;9.182;2023-04-01T04:39:40;96735.91;;;7.86;100.00
113;BME280;45999;48.808;9.182;2023-04-01T04:42:06;96737.91;;;7.79;100.00
113;BME280;45999;48.808;9.182;2023-04-01T04:44:33;96742.38;;;7.78;100.00
113;BME280;45999;48.808;9.182;2023-04-01T04:46:59;96738.81;;;7.73;100.00
113;BME280;45999;48.808;9.182;2023-04-01T04:49:26;96732.00;;;7.77;100.00
113;BME280;45999;48.808;9.182;2023-04-01T04:51:52;96731.91;;;7.72;100.00
113;BME280;45999;48.808;9.182;2023-04-01T04:54:18;96726.19;;;7.63;100.00
113;BME280;45999;48.808;9.182;2023-04-01T04:56:45;96731.47;;;7.63;100.00
113;BME280;45999;48.808;9.182;2023-04-01T04:59:11;96731.03;;;7.66;100.00
113;BME280;45999;48.808;9.182;2023-04-01T05:01:38;96730.22;;;7.66;100.00
113;BME280;45999;48.808;9.182;2023-04-01T05:04:04;96730.78;;;7.56;100.00
113;BME280;45999;48.808;9.182;2023-04-01T05:06:30;96730.44;;;7.53;100.00
113;BME280;45999;48.808;9.182;2023-04-01T05:08:57;96722.41;;;7.48;100.00
113;BME280;45999;48.808;9.182;2023-04-01T05:11:23;96723.22;;;7.48;100.00
113;BME280;45999;48.808;9.182;2023-04-01T05:13:51;96730.78;;;7.56;100.00
113;BME280;45999;48.808;9.182;2023-04-01T05:16:19;96730.13;;;7.49;100.00
113;BME280;45999;48.808;9.182;2023-04-01T05:18:46;96724.50;;;7.46;100.00
113;BME280;45999;48.808;9.182;2023-04-01T05:21:14;96724.13;;;7.54;100.00
113;BME280;45999;48.808;9.182;2023-04-01T05:23:41;96715.03;;;7.50;100.00
113;BME280;45999;48.808;9.182;2023-04-01T05:26:10;96717.22;;;7.53;100.00
113;BME280;45999;48.808;9.182;2023-04-01T05:28:38;96712.03;;;7.58;100.00
113;BME280;45999;48.808;9.182;2023-04-01T05:31:05;96717.81;;;7.66;100.00
113;BME280;45999;48.808;9.182;2023-04-01T05:33:32;96705.34;;;7.67;100.00
113;BME280;45999;48.808;9.182;2023-04-01T05:38:34;96713.03;;;7.80;100.00
113;BME280;45999;48.808;9.182;2023-04-01T05:41:02;96722.00;;;7.90;100.00
113;BME280;45999;48.808;9.182;2023-04-01T05:43:28;96712.56;;;7.94;100.00
113;BME280;45999;48.808;9.182;2023-04-01T05:45:56;96710.00;;;7.99;100.00
113;BME280;45999;48.808;9.182;2023-04-01T05:48:23;96714.03;;;8.02;100.00
113;BME280;45999;48.808;9.182;2023-04-01T05:50:49;96703.06;;;8.10;100.00
113;BME280;45999;48.808;9.182;2023-04-01T05:53:15;96704.66;;;8.11;100.00
113;BME280;45999;48.808;9.182;2023-04-01T05:55:42;96698.75;;;8.32;100.00
113;BME280;45999;48.808;9.182;2023-04-01T05:58:08;96702.41;;;8.31;100.00
113;BME280;45999;48.808;9.182;2023-04-01T06:00:34;96704.31;;;8.47;100.00
113;BME280;45999;48.808;9.182;2023-04-01T06:03:01;96702.66;;;8.57;100.00
113;BME280;45999;48.808;9.182;2023-04-01T06:05:30;96697.53;;;8.67;100.00
113;BME280;45999;48.808;9.182;2023-04-01T06:08:06;96694.13;;;8.72;100.00
113;BME280;45999;48.808;9.182;2023-04-01T06:10:44;96694.88;;;8.84;100.00
113;BME280;45999;48.808;9.182;2023-04-01T06:26:12;96681.16;;;9.03;100.00
113;BME280;45999;48.808;9.182;2023-04-01T06:32:19;96683.69;;;9.15;100.00
113;BME280;45999;48.808;9.182;2023-04-01T06:42:55;96699.09;;;9.18;100.00
113;BME280;45999;48.808;9.182;2023-04-01T06:45:34;96700.16;;;9.17;100.00
113;BME280;45999;48.808;9.182;2023-04-01T06:48:44;96691.34;;;9.11;100.00
113;BME280;45999;48.808;9.182;2023-04-01T06:54:14;96694.16;;;9.21;100.00
113;BME280;45999;48.808;9.182;2023-04-01T06:56:45;96700.81;;;9.24;100.00
113;BME280;45999;48.808;9.182;2023-04-01T06:59:21;96696.63;;;9.28;99.20
113;BME280;45999;48.808;9.182;2023-04-01T07:02:01;96695.66;;;9.34;99.59
113;BME280;45999;48.808;9.182;2023-04-01T07:04:34;96702.00;;;9.33;99.29
113;BME280;45999;48.808;9.182;2023-04-01T07:07:05;96693.00;;;9.34;100.00
113;BME280;45999;48.808;9.182;2023-04-01T07:09:35;96703.28;;;9.30;100.00
113;BME280;45999;48.808;9.182;2023-04-01T07:12:14;96695.09;;;9.32;100.00
113;BME280;45999;48.808;9.182;2023-04-01T07:14:42;96699.72;;;9.41;100.00
113;BME280;45999;48.808;9.182;2023-04-01T07:17:23;96713.72;;;9.37;100.00
113;BME280;45999;48.808;9.182;2023-04-01T07:19:58;96707.06;;;9.34;100.00
113;BME280;45999;48.808;9.182;2023-04-01T07:25:11;96710.50;;;9.35;100.00
113;BME280;45999;48.808;9.182;2023-04-01T07:27:39;96718.69;;;9.33;100.00
113;BME280;45999;48.808;9.182;2023-04-01T07:30:17;96715.50;;;9.31;100.00
113;BME280;45999;48.808;9.182;2023-04-01T07:32:48;96719.44;;;9.29;100.00
113;BME280;45999;48.808;9.182;2023-04-01T07:35:32;96714.44;;;9.32;100.00
113;BME280;45999;48.808;9.182;2023-04-01T07:38:13;96721.34;;;9.33;100.00
113;BME280;45999;48.808;9.182;2023-04-01T07:43:43;96717.91;;;9.33;100.00
113;BME280;45999;48.808;9.182;2023-04-01T07:49:04;96711.94;;;9.42;100.00
113;BME280;45999;48.808;9.182;2023-04-01T07:57:06;96724.13;;;9.60;100.00
113;BME280;45999;48.808;9.182;2023-04-01T08:08:22;96719.19;;;9.68;100.00
113;BME280;45999;48.808;9.182;2023-04-01T08:10:59;96723.28;;;9.76;100.00
113;BME280;45999;48.808;9.182;2023-04-01T08:19:43;96723.50;;;9.91;100.00
113;BME280;45999;48.808;9.182;2023-04-01T08:22:41;96721.81;;;9.85;99.39
113;BME280;45999;48.808;9.182;2023-04-01T08:25:16;96728.53;;;9.92;100.00
113;BME280;45999;48.808;9.182;2023-04-01T08:27:47;96723.78;;;9.94;100.00
113;BME280;45999;48.808;9.182;2023-04-01T08:30:18;96733.59;;;9.94;99.52
113;BME280;45999;48.808;9.182;2023-04-01T08:32:57;96730.34;;;9.87;100.00
113;BME280;45999;48.808;9.182;2023-04-01T08:35:29;96738.97;;;9.99;100.00
113;BME280;45999;48.808;9.182;2023-04-01T08:38:01;96731.44;;;9.91;100.00
113;BME280;45999;48.808;9.182;2023-04-01T08:54:18;96733.34;;;8.86;100.00
113;BME280;45999;48.808;9.182;2023-04-01T08:57:04;96731.19;;;9.00;100.00
113;BME280;45999;48.808;9.182;2023-04-01T08:59:53;96729.47;;;8.94;100.00
113;BME280;45999;48.808;9.182;2023-04-01T09:05:34;96734.94;;;8.87;100.00
113;BME280;45999;48.808;9.182;2023-04-01T09:10:56;96727.72;;;8.99;100.00
113;BME280;45999;48.808;9.182;2023-04-01T09:16:35;96741.06;;;9.04;100.00
113;BME280;45999;48.808;9.182;2023-04-01T09:19:31;96739.22;;;9.21;100.00
113;BME280;45999;48.808;9.182;2023-04-01T09:22:21;96736.06;;;9.24;100.00
113;BME280;45999;48.808;9.182;2023-04-01T09:30:33;96742.38;;;9.73;100.00
113;BME280;45999;48.808;9.182;2023-04-01T09:44:37;96759.78;;;9.85;100.00
113;BME280;45999;48.808;9.182;2023-04-01T09:47:14;96755.94;;;9.76;100.00
113;BME280;45999;48.808;9.182;2023-04-01T09:52:31;96742.97;;;9.80;100.00
113;BME280;45999;48.808;9.182;2023-04-01T09:57:40;96753.69;;;9.68;100.00
113;BME280;45999;48.808;9.182;2023-04-01T10:12:01;96769.34;;;9.86;100.00
113;BME280;45999;48.808;9.182;2023-04-01T10:18:14;96768.03;;;10.05;100.00
113;BME280;45999;48.808;9.182;2023-04-01T10:23:40;96768.41;;;10.35;97.95
113;BME280;45999;48.808;9.182;2023-04-01T10:30:04;96766.22;;;10.54;92.67
113;BME280;45999;48.808;9.182;2023-04-01T10:34:44;96769.44;;;10.34;96.46
113;BME280;45999;48.808;9.182;2023-04-01T10:43:11;96763.34;;;10.12;100.00
113;BME280;45999;48.808;9.182;2023-04-01T10:45:58;96754.63;;;10.17;96.72
113;BME280;45999;48.808;9.182;2023-04-01T10:51:26;96774.44;;;10.31;92.86
113;BME280;45999;48.808;9.182;2023-04-01T10:54:48;96760.50;;;10.19;91.23
113;BME280;45999;48.808;9.182;2023-04-01T10:58:10;96769.78;;;10.16;92.78
113;BME280;45999;48.808;9.182;2023-04-01T11:01:02;96769.34;;;10.24;94.98
113;BME280;45999;48.808;9.182;2023-04-01T11:13:01;96786.09;;;10.51;89.57
113;BME280;45999;48.808;9.182;2023-04-01T11:30:02;96774.00;;;10.87;85.46
113;BME280;45999;48.808;9.182;2023-04-01T11:32:46;96780.06;;;11.09;86.57
113;BME280;45999;48.808;9.182;2023-04-01T11:38:11;96779.09;;;11.20;87.07
113;BME280;45999;48.808;9.182;2023-04-01T11:40:52;96777.31;;;11.31;84.18
113;BME280;45999;48.808;9.182;2023-04-01T11:43:45;96788.50;;;11.32;81.96
113;BME280;45999;48.808;9.182;2023-04-01T11:46:24;96786.03;;;11.58;82.62
113;BME280;45999;48.808;9.182;2023-04-01T11:54:50;96797.75;;;11.25;81.95
113;BME280;45999;48.808;9.182;2023-04-01T12:16:59;96811.47;;;10.85;88.66
113;BME280;45999;48.808;9.182;2023-04-01T12:19:43;96810.22;;;10.93;92.31
113;BME280;45999;48.808;9.182;2023-04-01T12:28:14;96812.19;;;10.81;96.37
113;BME280;45999;48.808;9.182;2023-04-01T12:31:25;96811.75;;;10.89;95.85
113;BME280;45999;48.808;9.182;2023-04-01T12:37:04;96816.53;;;10.87;93.67
113;BME280;45999;48.808;9.182;2023-04-01T12:39:53;96821.34;;;11.17;94.09
113;BME280;45999;48.808;9.182;2023-04-01T12:45:40;96817.13;;;11.21;87.97
113;BME280;45999;48.808;9.182;2023-04-01T12:48:23;96812.03;;;11.14;88.71
113;BME280;45999;48.808;9.182;2023-04-01T12:54:08;96815.00;;;11.23;88.12
113;BME280;45999;48.808;9.182;2023-04-01T12:57:11;96812.91;;;10.98;86.07
113;BME280;45999;48.808;9.182;2023-04-01T13:03:02;96829.47;;;11.32;84.96
113;BME280;45999;48.808;9.182;2023-04-01T13:11:27;96836.09;;;11.29;86.75
113;BME280;45999;48.808;9.182;2023-04-01T13:14:27;96838.63;;;11.14;88.22
113;BME280;45999;48.808;9.182;2023-04-01T13:19:58;96846.22;;;11.05;88.14
113;BME280;45999;48.808;9.182;2023-04-01T13:22:45;96849.31;;;10.93;85.91
113;BME280;45999;48.808;9.182;2023-04-01T13:28:27;96847.38;;;11.41;83.56
113;BME280;45999;48.808;9.182;2023-04-01T13:33:46;96845.91;;;11.55;82.39
113;BME280;45999;48.808;9.182;2023-04-01T13:36:39;96844.75;;;11.46;82.62
113;BME280;45999;48.808;9.182;2023-04-01T13:42:13;96851.19;;;11.50;84.21
113;BME280;45999;48.808;9.182;2023-04-01T14:02:29;96869.22;;;11.43;82.00
113;BME280;45999;48.808;9.182;2023-04-01T14:05:12;96863.50;;;11.30;82.86
113;BME280;45999;48.808;9.182;2023-04-01T14:11:13;96873.72;;;11.16;84.01
113;BME280;45999;48.808;9.182;2023-04-01T14:13:53;96884.94;;;11.18;83.05
113;BME280;45999;48.808;9.182;2023-04-01T14:16:46;96875.91;;;11.19;84.11
113;BME280;45999;48.808;9.182;2023-04-01T14:19:34;96872.19;;;11.20;83.94
113;BME280;45999;48.808;9.182;2023-04-01T14:25:21;96873.34;;;11.02;86.71
113;BME280;45999;48.808;9.182;2023-04-01T14:31:36;96881.41;;;10.86;87.75
113;BME280;45999;48.808;9.182;2023-04-01T14:34:05;96880.84;;;10.84;89.79
113;BME280;45999;48.808;9.182;2023-04-01T14:36:37;96891.94;;;10.81;94.19
113;BME280;45999;48.808;9.182;2023-04-01T14:39:15;96885.84;;;10.80;95.50
113;BME280;45999;48.808;9.182;2023-04-01T14:50:25;96889.59;;;10.63;92.77
113;BME280;45999;48.808;9.182;2023-04-01T14:53:13;96897.50;;;10.74;92.30
113;BME280;45999;48.808;9.182;2023-04-01T14:55:48;96888.75;;;10.79;91.69
113;BME280;45999;48.808;9.182;2023-04-01T14:58:17;96898.28;;;10.75;91.00
113;BME280;45999;48.808;9.182;2023-04-01T15:00:47;96887.50;;;10.86;91.28
113;BME280;45999;48.808;9.182;2023-04-01T15:06:03;96887.22;;;11.09;89.76
113;BME280;45999;48.808;9.182;2023-04-01T15:08:49;96888.81;;;11.10;90.00
113;BME280;45999;48.808;9.182;2023-04-01T15:14:29;96898.06;;;11.25;88.36
113;BME280;45999;48.808;9.182;2023-04-01T15:20:01;96901.94;;;11.17;88.16
113;BME280;45999;48.808;9.182;2023-04-01T15:25:44;96910.47;;;11.19;89.05
113;BME280;45999;48.808;9.182;2023-04-01T15:28:31;96912.28;;;11.13;87.79
113;BME280;45999;48.808;9.182;2023-04-01T15:47:39;96920.22;;;10.87;88.11
113;BME280;45999;48.808;9.182;2023-04-01T15:50:41;96931.75;;;10.93;87.60
113;BME280;45999;48.808;9.182;2023-04-01T15:53:37;96931.22;;;10.95;88.18
113;BME280;45999;48.808;9.182;2023-04-01T15:56:39;96929.00;;;10.87;90.28
113;BME280;45999;48.808;9.182;2023-04-01T15:59:41;96940.38;;;10.83;89.34
113;BME280;45999;48.808;9.182;2023-04-01T16:10:43;96941.28;;;10.72;84.83
113;BME280;45999;48.808;9.182;2023-04-01T16:24:19;96946.00;;;10.65;86.06
113;BME280;45999;48.808;9.182;2023-04-01T16:27:06;96955.97;;;10.58;84.44
113;BME280;45999;48.808;9.182;2023-04-01T16:29:43;96956.50;;;10.55;83.97
113;BME280;45999;48.808;9.182;2023-04-01T16:32:18;96964.22;;;10.56;85.80
113;BME280;45999;48.808;9.182;2023-04-01T16:34:56;96964.94;;;10.52;86.18
113;BME280;45999;48.808;9.182;2023-04-01T16:37:36;96966.53;;;10.53;84.89
113;BME280;45999;48.808;9.182;2023-04-01T16:42:53;96968.06;;;10.49;84.96
113;BME280;45999;48.808;9.182;2023-04-01T16:48:13;96978.41;;;10.45;86.07
113;BME280;45999;48.808;9.182;2023-04-01T16:50:48;96973.41;;;10.49;87.95
113;BME280;45999;48.808;9.182;2023-04-01T16:53:21;96979.84;;;10.53;86.92
113;BME280;45999;48.808;9.182;2023-04-01T16:58:27;96989.91;;;10.51;87.39
113;BME280;45999;48.808;9.182;2023-04-01T17:01:05;96985.00;;;10.43;88.00
113;BME280;45999;48.808;9.182;2023-04-01T17:03:40;96986.06;;;10.42;89.15
113;BME280;45999;48.808;9.182;2023-04-01T17:12:00;96975.75;;;10.45;89.54
113;BME280;45999;48.808;9.182;2023-04-01T17:14:43;96975.59;;;10.35;92.74
113;BME280;45999;48.808;9.182;2023-04-01T17:20:31;96980.16;;;10.40;91.37
113;BME280;45999;48.808;9.182;2023-04-01T17:28:36;96989.19;;;10.39;91.70
113;BME280;45999;48.808;9.182;2023-04-01T17:31:10;96982.81;;;10.40;92.83
113;BME280;45999;48.808;9.182;2023-04-01T17:37:01;96997.75;;;10.41;92.19
113;BME280;45999;48.808;9.182;2023-04-01T17:42:14;97012.88;;;10.40;92.55
113;BME280;45999;48.808;9.182;2023-04-01T17:47:58;97018.34;;;10.34;93.38
113;BME280;45999;48.808;9.182;2023-04-01T17:50:44;97022.53;;;10.30;95.23
113;BME280;45999;48.808;9.182;2023-04-01T17:56:02;97026.53;;;10.32;93.90
113;BME280;45999;48.808;9.182;2023-04-01T18:01:36;97043.63;;;10.20;100.00
113;BME280;45999;48.808;9.182;2023-04-01T18:04:36;97054.31;;;10.08;100.00
113;BME280;45999;48.808;9.182;2023-04-01T18:07:24;97050.56;;;9.93;100.00
113;BME280;45999;48.808;9.182;2023-04-01T18:10:13;97049.31;;;9.84;100.00
113;BME280;45999;48.808;9.182;2023-04-01T18:15:45;97051.38;;;9.65;100.00
113;BME280;45999;48.808;9.182;2023-04-01T18:21:18;97049.63;;;9.43;100.00
113;BME280;45999;48.808;9.182;2023-04-01T18:26:37;97056.88;;;9.36;100.00
113;BME280;45999;48.808;9.182;2023-04-01T18:32:15;97055.88;;;9.37;100.00
113;BME280;45999;48.808;9.182;2023-04-01T18:35:13;97058.78;;;9.24;100.00
113;BME280;45999;48.808;9.182;2023-04-01T18:37:46;97074.22;;;9.27;100.00
113;BME280;45999;48.808;9.182;2023-04-01T18:43:08;97078.94;;;9.25;100.00
113;BME280;45999;48.808;9.182;2023-04-01T18:46:02;97073.09;;;9.23;100.00
113;BME280;45999;48.808;9.182;2023-04-01T18:51:33;97088.63;;;9.19;100.00
113;BME280;45999;48.808;9.182;2023-04-01T18:56:45;97100.31;;;9.07;100.00
113;BME280;45999;48.808;9.182;2023-04-01T18:59:47;97101.47;;;8.99;100.00
113;BME280;45999;48.808;9.182;2023-04-01T19:07:49;97111.25;;;8.87;100.00
113;BME280;45999;48.808;9.182;2023-04-01T19:10:30;97116.13;;;8.79;100.00
113;BME280;45999;48.808;9.182;2023-04-01T19:13:06;97110.09;;;8.72;100.00
113;BME280;45999;48.808;9.182;2023-04-01T19:16:04;97108.28;;;8.72;100.00
113;BME280;45999;48.808;9.182;2023-04-01T19:21:19;97105.84;;;8.59;100.00
113;BME280;45999;48.808;9.182;2023-04-01T19:32:14;97108.34;;;8.43;100.00
113;BME280;45999;48.808;9.182;2023-04-01T19:48:29;97117.31;;;8.30;100.00
113;BME280;45999;48.808;9.182;2023-04-01T19:56:42;97124.69;;;8.40;100.00
113;BME280;45999;48.808;9.182;2023-04-01T20:04:43;97136.44;;;8.44;100.00
113;BME280;45999;48.808;9.182;2023-04-01T20:10:09;97146.81;;;8.45;100.00
113;BME280;45999;48.808;9.182;2023-04-01T20:15:23;97148.69;;;8.56;100.00
113;BME280;45999;48.808;9.182;2023-04-01T20:17:56;97139.47;;;8.59;100.00
113;BME280;45999;48.808;9.182;2023-04-01T20:20:27;97150.66;;;8.61;100.00
113;BME280;45999;48.808;9.182;2023-04-01T20:25:38;97157.22;;;8.70;100.00
113;BME280;45999;48.808;9.182;2023-04-01T20:28:20;97162.41;;;8.65;100.00
113;BME280;45999;48.808;9.182;2023-04-01T20:30:57;97161.16;;;8.67;100.00
113;BME280;45999;48.808;9.182;2023-04-01T20:33:37;97162.97;;;8.67;100.00
113;BME280;45999;48.808;9.182;2023-04-01T20:36:21;97170.59;;;8.75;100.00
113;BME280;45999;48.808;9.182;2023-04-01T20:50:47;97169.56;;;8.87;100.00
113;BME280;45999;48.808;9.182;2023-04-01T20:53:20;97170.84;;;8.85;100.00
113;BME280;45999;48.808;9.182;2023-04-01T20:56:02;97171.06;;;8.83;100.00
113;BME280;45999;48.808;9.182;2023-04-01T20:58:57;97179.50;;;8.80;100.00
113;BME280;45999;48.808;9.182;2023-04-01T21:01:50;97176.63;;;8.82;100.00
113;BME280;45999;48.808;9.182;2023-04-01T21:07:37;97179.84;;;8.84;100.00
113;BME280;45999;48.808;9.182;2023-04-01T21:13:20;97179.38;;;8.87;100.00
113;BME280;45999;48.808;9.182;2023-04-01T21:27:23;97195.38;;;8.80;100.00
113;BME280;45999;48.808;9.182;2023-04-01T21:30:24;97201.25;;;8.82;100.00
113;BME280;45999;48.808;9.182;2023-04-01T21:35:55;97201.34;;;8.76;100.00
113;BME280;45999;48.808;9.182;2023-04-01T21:49:55;97216.44;;;8.64;100.00
113;BME280;45999;48.808;9.182;2023-04-01T21:55:32;97227.34;;;8.56;100.00
113;BME280;45999;48.808;9.182;2023-04-01T22:07:17;97226.72;;;8.42;100.00
113;BME280;45999;48.808;9.182;2023-04-01T22:10:12;97230.84;;;8.38;100.00
113;BME280;45999;48.808;9.182;2023-04-01T22:15:51;97228.19;;;8.38;100.00